createdAt,value
2019-05-28T00:00:55.613Z,87.31
2019-05-28T00:03:29.519Z,87.58
2019-05-28T00:06:02.200Z,88.13
2019-05-28T00:08:34.879Z,88.13
2019-05-28T00:11:07.457Z,87.62
2019-05-28T00:13:40.242Z,87.64
2019-05-28T00:16:12.687Z,87.21
2019-05-28T00:18:44.952Z,87.64
2019-05-28T00:21:17.562Z,88.34
2019-05-28T00:23:51.272Z,88.64
2019-05-28T00:26:23.999Z,88.87
2019-05-28T00:28:56.619Z,88.39
2019-05-28T00:31:29.302Z,88.24
2019-05-28T00:34:01.992Z,88.62
2019-05-28T00:36:34.656Z,88.29
2019-05-28T00:39:09.290Z,88.21
2019-05-28T00:41:41.979Z,88.29
2019-05-28T00:44:15.664Z,88.44
2019-05-28T00:46:48.395Z,88.64
2019-05-28T00:49:21.031Z,88.55
2019-05-28T00:51:53.815Z,89.00
2019-05-28T00:54:26.494Z,89.28
2019-05-28T00:56:59.994Z,89.32
2019-05-28T00:59:33.786Z,89.22
2019-05-28T01:02:06.771Z,89.19
2019-05-28T01:04:40.475Z,89.44
2019-05-28T01:07:14.291Z,89.74
2019-05-28T01:09:46.960Z,90.19
2019-05-28T01:12:19.649Z,90.26
2019-05-28T01:14:52.422Z,90.68
2019-05-28T01:17:26.448Z,92.31
2019-05-28T01:19:59.022Z,92.19
2019-05-28T01:22:31.696Z,92.58
2019-05-28T01:25:06.531Z,92.76
2019-05-28T01:27:40.263Z,93.35
2019-05-28T01:30:13.212Z,93.75
2019-05-28T01:32:47.870Z,94.11
2019-05-28T01:35:20.216Z,94.46
2019-05-28T01:37:53.100Z,95.84
2019-05-28T01:40:25.797Z,96.26
2019-05-28T01:42:59.066Z,96.93
2019-05-28T01:45:31.767Z,97.44
2019-05-28T01:48:05.166Z,98.32
2019-05-28T01:50:37.838Z,98.92
2019-05-28T01:53:10.141Z,99.72
2019-05-28T01:55:42.783Z,100.00
2019-05-28T01:58:15.451Z,100.00
2019-05-28T02:00:48.588Z,100.00
2019-05-28T02:03:21.227Z,100.00
2019-05-28T02:05:53.904Z,100.00
2019-05-28T02:08:26.572Z,100.00
2019-05-28T02:10:59.257Z,100.00
2019-05-28T02:13:32.138Z,100.00
2019-05-28T02:16:04.820Z,100.00
2019-05-28T02:18:37.127Z,100.00
2019-05-28T02:21:09.369Z,100.00
2019-05-28T02:23:42.038Z,100.00
2019-05-28T02:26:14.717Z,100.00
2019-05-28T02:28:47.396Z,100.00
2019-05-28T02:31:27.782Z,100.00
2019-05-28T02:33:54.351Z,100.00
2019-05-28T02:36:27.072Z,100.00
2019-05-28T02:38:59.806Z,100.00
2019-05-28T02:41:32.427Z,100.00
2019-05-28T02:44:05.673Z,100.00
2019-05-28T02:46:37.895Z,100.00
2019-05-28T02:49:10.572Z,100.00
2019-05-28T02:51:44.593Z,100.00
2019-05-28T02:54:17.367Z,100.00
2019-05-28T02:56:51.672Z,100.00
2019-05-28T02:59:26.107Z,100.00
2019-05-28T03:02:00.314Z,100.00
2019-05-28T03:04:33.472Z,100.00
2019-05-28T03:07:06.489Z,100.00
2019-05-28T03:09:41.630Z,100.00
2019-05-28T03:12:14.306Z,100.00
2019-05-28T03:14:47.036Z,100.00
2019-05-28T03:17:21.196Z,100.00
2019-05-28T03:19:54.597Z,100.00
2019-05-28T03:22:27.578Z,100.00
2019-05-28T03:25:01.487Z,100.00
2019-05-28T03:27:34.583Z,100.00
2019-05-28T03:30:11.020Z,100.00
2019-05-28T03:32:43.628Z,100.00
2019-05-28T03:35:16.403Z,100.00
2019-05-28T03:37:49.083Z,100.00
2019-05-28T03:40:43.064Z,100.00
2019-05-28T03:43:17.690Z,100.00
2019-05-28T03:45:50.698Z,100.00
2019-05-28T03:48:23.354Z,100.00
2019-05-28T03:50:56.341Z,100.00
2019-05-28T03:53:29.020Z,100.00
2019-05-28T03:56:01.732Z,100.00
2019-05-28T03:58:34.378Z,100.00
2019-05-28T04:01:07.161Z,100.00
2019-05-28T04:03:39.843Z,100.00
2019-05-28T04:06:12.525Z,100.00
2019-05-28T04:08:45.089Z,100.00
2019-05-28T04:11:17.775Z,100.00
2019-05-28T04:13:50.412Z,100.00
2019-05-28T04:16:23.132Z,100.00
2019-05-28T04:18:55.812Z,100.00
2019-05-28T04:21:28.496Z,100.00
2019-05-28T04:24:01.170Z,100.00
2019-05-28T04:26:34.167Z,100.00
2019-05-28T04:29:06.501Z,100.00
2019-05-28T04:31:39.216Z,100.00
2019-05-28T04:34:12.190Z,100.00
2019-05-28T04:36:44.474Z,100.00
2019-05-28T04:39:17.073Z,100.00
2019-05-28T04:41:49.720Z,100.00
2019-05-28T04:44:22.394Z,100.00
2019-05-28T04:46:55.086Z,100.00
2019-05-28T04:49:27.763Z,100.00
2019-05-28T04:52:00.471Z,100.00
2019-05-28T04:54:33.121Z,100.00
2019-05-28T04:57:05.801Z,100.00
2019-05-28T04:59:38.464Z,100.00
2019-05-28T05:02:11.359Z,100.00
2019-05-28T05:04:45.075Z,100.00
2019-05-28T05:07:17.751Z,100.00
2019-05-28T05:09:49.991Z,100.00
2019-05-28T05:12:22.570Z,100.00
2019-05-28T05:14:55.274Z,100.00
2019-05-28T05:17:27.968Z,100.00
2019-05-28T05:20:00.626Z,100.00
2019-05-28T05:22:33.298Z,100.00
2019-05-28T05:25:08.331Z,100.00
2019-05-28T05:27:42.358Z,100.00
2019-05-28T05:30:16.260Z,100.00
2019-05-28T05:32:51.198Z,100.00
2019-05-28T05:35:23.909Z,100.00
2019-05-28T05:37:56.650Z,100.00
2019-05-28T05:40:29.434Z,100.00
2019-05-28T05:43:02.305Z,100.00
2019-05-28T05:45:35.297Z,100.00
2019-05-28T05:48:09.155Z,100.00
2019-05-28T05:50:45.066Z,100.00
2019-05-28T05:53:16.517Z,100.00
2019-05-28T05:55:49.194Z,100.00
2019-05-28T05:58:21.469Z,100.00
2019-05-28T06:00:54.191Z,100.00
2019-05-28T06:03:39.834Z,100.00
2019-05-28T06:06:02.884Z,99.67
2019-05-28T06:08:37.178Z,99.15
2019-05-28T06:11:09.972Z,98.52
2019-05-28T06:13:42.647Z,99.07
2019-05-28T06:16:15.340Z,98.18
2019-05-28T06:18:47.619Z,99.15
2019-05-28T06:21:20.480Z,98.46
2019-05-28T06:23:53.181Z,98.60
2019-05-28T06:26:25.418Z,98.30
2019-05-28T06:28:58.114Z,98.58
2019-05-28T06:31:30.817Z,98.48
2019-05-28T06:34:03.486Z,98.26
2019-05-28T06:36:35.730Z,98.53
2019-05-28T06:39:09.518Z,97.12
2019-05-28T06:41:42.125Z,97.74
2019-05-28T06:44:14.806Z,95.69
2019-05-28T06:46:47.475Z,95.98
2019-05-28T06:49:20.258Z,95.77
2019-05-28T06:51:52.946Z,96.55
2019-05-28T06:54:25.650Z,98.67
2019-05-28T06:56:57.857Z,97.77
2019-05-28T06:59:30.468Z,98.19
2019-05-28T07:02:03.259Z,98.87
2019-05-28T07:04:35.930Z,98.64
2019-05-28T07:07:08.601Z,99.84
2019-05-28T07:09:42.315Z,99.27
2019-05-28T07:12:17.886Z,98.27
2019-05-28T07:14:49.531Z,98.69
2019-05-28T07:17:22.496Z,97.77
2019-05-28T07:19:55.190Z,98.63
2019-05-28T07:22:27.864Z,99.46
2019-05-28T07:25:00.547Z,99.66
2019-05-28T07:27:33.217Z,99.22
2019-05-28T07:30:08.866Z,99.41
2019-05-28T07:32:41.451Z,100.00
2019-05-28T07:35:14.733Z,100.00
2019-05-28T07:37:47.424Z,99.75
2019-05-28T07:40:31.282Z,98.14
2019-05-28T07:42:55.133Z,98.27
2019-05-28T07:45:27.817Z,97.09
2019-05-28T07:48:00.602Z,96.79
2019-05-28T07:50:33.264Z,96.12
2019-05-28T07:53:05.964Z,97.21
2019-05-28T07:55:38.636Z,98.13
2019-05-28T07:58:11.319Z,98.72
2019-05-28T08:00:45.112Z,98.58
2019-05-28T08:03:17.806Z,97.93
2019-05-28T08:05:50.479Z,98.08
2019-05-28T08:08:25.307Z,98.63
2019-05-28T08:10:57.972Z,98.74
2019-05-28T08:13:40.096Z,98.43
2019-05-28T08:16:18.191Z,99.26
2019-05-28T08:18:40.522Z,99.37
2019-05-28T08:21:13.205Z,100.00
2019-05-28T08:23:45.986Z,100.00
2019-05-28T08:26:18.665Z,99.93
2019-05-28T08:28:51.373Z,99.25
2019-05-28T08:31:24.126Z,99.24
2019-05-28T08:33:57.006Z,99.34
2019-05-28T08:36:29.891Z,99.33
2019-05-28T08:39:02.465Z,99.02
2019-05-28T08:41:37.588Z,98.54
2019-05-28T08:44:10.184Z,98.53
2019-05-28T08:46:42.851Z,98.09
2019-05-28T08:49:15.547Z,97.96
2019-05-28T08:51:48.526Z,97.52
2019-05-28T08:54:21.216Z,97.78
2019-05-28T08:56:53.505Z,98.16
2019-05-28T08:59:26.203Z,98.54
2019-05-28T09:01:58.934Z,99.03
2019-05-28T09:04:31.784Z,98.41
2019-05-28T09:07:05.625Z,97.94
2019-05-28T09:09:38.297Z,97.76
2019-05-28T09:12:10.989Z,97.54
2019-05-28T09:14:55.988Z,98.02
2019-05-28T09:17:18.084Z,97.04
2019-05-28T09:19:50.770Z,96.59
2019-05-28T09:22:26.224Z,96.83
2019-05-28T09:24:57.356Z,96.33
2019-05-28T09:27:31.164Z,96.13
2019-05-28T09:30:04.249Z,95.15
2019-05-28T09:32:36.534Z,95.08
2019-05-28T09:35:11.349Z,94.84
2019-05-28T09:37:43.930Z,95.09
2019-05-28T09:40:16.913Z,94.87
2019-05-28T09:42:50.004Z,94.87
2019-05-28T09:45:23.524Z,94.51
2019-05-28T09:47:56.388Z,94.55
2019-05-28T09:50:30.882Z,94.15
2019-05-28T09:53:03.071Z,94.96
2019-05-28T09:55:36.064Z,93.93
2019-05-28T09:58:16.892Z,94.84
2019-05-28T10:00:58.027Z,95.33
2019-05-28T10:03:24.953Z,94.92
2019-05-28T10:06:15.076Z,95.54
2019-05-28T10:08:32.263Z,94.66
2019-05-28T10:11:04.932Z,94.97
2019-05-28T10:13:39.861Z,93.93
2019-05-28T10:16:11.460Z,93.30
2019-05-28T10:18:43.997Z,93.77
2019-05-28T10:21:18.668Z,93.66
2019-05-28T10:23:50.893Z,94.55
2019-05-28T10:26:23.151Z,96.12
2019-05-28T10:28:56.044Z,94.69
2019-05-28T10:31:28.723Z,95.04
2019-05-28T10:34:01.438Z,94.26
2019-05-28T10:36:36.444Z,94.88
2019-05-28T10:39:10.245Z,95.39
2019-05-28T10:41:42.921Z,94.49
2019-05-28T10:44:15.498Z,95.49
2019-05-28T10:46:49.202Z,95.88
2019-05-28T10:49:22.089Z,95.80
2019-05-28T10:51:55.178Z,95.25
2019-05-28T10:54:27.421Z,95.19
2019-05-28T10:57:00.553Z,95.61
2019-05-28T10:59:32.774Z,95.49
2019-05-28T11:02:05.481Z,96.07
2019-05-28T11:04:38.182Z,95.27
2019-05-28T11:07:19.237Z,95.16
2019-05-28T11:09:51.702Z,95.58
2019-05-28T11:12:25.734Z,96.11
2019-05-28T11:14:58.403Z,95.72
2019-05-28T11:17:31.077Z,95.51
2019-05-28T11:20:04.793Z,95.16
2019-05-28T11:22:37.462Z,94.70
2019-05-28T11:25:11.485Z,94.41
2019-05-28T11:27:44.151Z,93.47
2019-05-28T11:30:19.306Z,92.85
2019-05-28T11:32:52.168Z,92.59
2019-05-28T11:35:25.566Z,93.62
2019-05-28T11:37:57.808Z,90.06
2019-05-28T11:40:30.316Z,90.42
2019-05-28T11:43:03.499Z,90.13
2019-05-28T11:45:36.496Z,90.15
2019-05-28T11:48:09.615Z,90.38
2019-05-28T11:50:42.356Z,89.91
2019-05-28T11:53:15.049Z,89.60
2019-05-28T11:55:47.926Z,87.74
2019-05-28T11:58:20.619Z,87.81
2019-05-28T12:00:53.177Z,88.23
2019-05-28T12:03:26.164Z,85.78
2019-05-28T12:05:59.099Z,86.47
2019-05-28T12:08:31.723Z,86.97
2019-05-28T12:11:04.304Z,88.06
2019-05-28T12:13:36.910Z,88.02
2019-05-28T12:16:09.241Z,87.03
2019-05-28T12:18:41.932Z,85.80
2019-05-28T12:21:14.509Z,85.72
2019-05-28T12:23:47.290Z,86.07
2019-05-28T12:26:21.406Z,85.08
2019-05-28T12:28:53.990Z,84.80
2019-05-28T12:31:26.389Z,85.02
2019-05-28T12:33:59.062Z,86.07
2019-05-28T12:36:31.920Z,85.10
2019-05-28T12:39:06.436Z,85.11
2019-05-28T12:41:39.121Z,84.76
2019-05-28T12:44:12.049Z,86.37
2019-05-28T12:46:44.586Z,86.39
2019-05-28T12:49:17.260Z,85.68
2019-05-28T12:51:49.837Z,86.77
2019-05-28T12:54:22.848Z,86.92
2019-05-28T12:56:55.498Z,87.25
2019-05-28T12:59:27.769Z,86.90
2019-05-28T13:02:00.344Z,87.15
2019-05-28T13:04:33.023Z,87.26
2019-05-28T13:07:05.753Z,85.66
2019-05-28T13:09:38.444Z,85.70
2019-05-28T13:12:11.061Z,86.63
2019-05-28T13:14:43.742Z,86.53
2019-05-28T13:17:16.315Z,86.66
2019-05-28T13:19:49.008Z,86.75
2019-05-28T13:22:21.576Z,86.10
2019-05-28T13:24:53.923Z,86.98
2019-05-28T13:27:26.620Z,87.26
2019-05-28T13:29:58.868Z,85.88
2019-05-28T13:32:31.472Z,85.80
2019-05-28T13:35:04.974Z,84.90
2019-05-28T13:37:37.555Z,84.83
2019-05-28T13:40:12.955Z,85.95
2019-05-28T13:42:45.670Z,86.56
2019-05-28T13:45:19.320Z,86.67
2019-05-28T13:47:51.959Z,87.71
2019-05-28T13:50:25.040Z,87.50
2019-05-28T13:52:58.943Z,88.14
2019-05-28T13:55:31.724Z,87.92
2019-05-28T13:58:04.322Z,88.70
2019-05-28T14:00:37.194Z,89.04
2019-05-28T14:03:10.410Z,88.70
2019-05-28T14:05:43.464Z,88.93
2019-05-28T14:08:15.673Z,88.30
2019-05-28T14:10:48.310Z,87.90
2019-05-28T14:13:20.890Z,86.97
2019-05-28T14:15:53.568Z,86.33
2019-05-28T14:18:27.067Z,85.55
2019-05-28T14:20:59.743Z,85.65
2019-05-28T14:23:32.696Z,85.76
2019-05-28T14:26:05.791Z,85.35
2019-05-28T14:28:38.395Z,84.49
2019-05-28T14:31:10.972Z,84.52
2019-05-28T14:33:43.651Z,85.30
2019-05-28T14:36:16.437Z,84.74
2019-05-28T14:39:02.426Z,84.37
2019-05-28T14:41:23.331Z,84.26
2019-05-28T14:43:56.008Z,84.45
2019-05-28T14:46:28.582Z,84.79
2019-05-28T14:49:01.264Z,84.25
2019-05-28T14:51:34.970Z,84.77
2019-05-28T14:54:07.598Z,85.03
2019-05-28T14:56:40.230Z,84.20
2019-05-28T14:59:12.906Z,84.78
2019-05-28T15:01:45.122Z,85.81
2019-05-28T15:04:18.857Z,85.23
2019-05-28T15:06:51.451Z,85.55
2019-05-28T15:09:24.133Z,86.36
2019-05-28T15:11:56.350Z,86.91
2019-05-28T15:14:29.077Z,87.05
2019-05-28T15:17:01.999Z,86.80
2019-05-28T15:19:34.855Z,86.49
2019-05-28T15:22:07.462Z,87.10
2019-05-28T15:24:40.716Z,87.02
2019-05-28T15:27:13.295Z,87.13
2019-05-28T15:29:45.992Z,87.65
2019-05-28T15:32:18.555Z,88.11
2019-05-28T15:34:50.795Z,88.49
2019-05-28T15:37:23.397Z,89.45
2019-05-28T15:39:55.650Z,89.76
2019-05-28T15:42:28.243Z,90.06
2019-05-28T15:45:00.928Z,90.33
2019-05-28T15:47:33.869Z,90.53
2019-05-28T15:50:08.946Z,90.56
2019-05-28T15:52:41.521Z,90.74
2019-05-28T15:55:14.814Z,90.32
2019-05-28T15:57:47.388Z,89.90
2019-05-28T16:00:24.644Z,89.83
2019-05-28T16:02:58.051Z,89.09
2019-05-28T16:05:30.754Z,89.25
2019-05-28T16:08:03.330Z,89.17
2019-05-28T16:10:36.025Z,89.31
2019-05-28T16:13:08.585Z,89.35
2019-05-28T16:15:41.368Z,89.83
2019-05-28T16:18:13.957Z,90.96
2019-05-28T16:20:46.938Z,90.90
2019-05-28T16:23:19.504Z,90.74
2019-05-28T16:25:52.593Z,90.24
2019-05-28T16:28:26.198Z,91.24
2019-05-28T16:31:11.717Z,91.37
2019-05-28T16:33:33.204Z,92.54
2019-05-28T16:36:05.973Z,92.69
2019-05-28T16:38:38.862Z,93.40
2019-05-28T16:41:11.535Z,93.59
2019-05-28T16:43:44.113Z,94.21
2019-05-28T16:46:16.695Z,94.47
2019-05-28T16:48:48.934Z,93.77
2019-05-28T16:51:21.537Z,94.02
2019-05-28T16:53:54.115Z,94.08
2019-05-28T16:56:26.795Z,94.73
2019-05-28T16:58:59.367Z,95.43
2019-05-28T17:01:32.054Z,96.04
2019-05-28T17:04:04.623Z,95.81
2019-05-28T17:06:38.394Z,96.40
2019-05-28T17:09:10.701Z,96.45
2019-05-28T17:11:43.384Z,96.50
2019-05-28T17:14:15.954Z,97.02
2019-05-28T17:16:49.067Z,97.76
2019-05-28T17:19:21.621Z,97.94
2019-05-28T17:21:54.309Z,97.53
2019-05-28T17:24:26.882Z,97.57
2019-05-28T17:27:00.581Z,98.45
2019-05-28T17:29:32.792Z,98.19
2019-05-28T17:32:05.430Z,98.32
2019-05-28T17:34:38.772Z,98.78
2019-05-28T17:37:12.655Z,98.93
2019-05-28T17:39:45.263Z,99.03
2019-05-28T17:42:17.887Z,99.87
2019-05-28T17:44:50.521Z,99.50
2019-05-28T17:47:23.045Z,99.68
2019-05-28T17:49:55.616Z,99.65
2019-05-28T17:52:28.295Z,99.80
2019-05-28T17:55:00.972Z,99.68
2019-05-28T17:57:33.663Z,99.93
2019-05-28T18:00:07.866Z,100.00
2019-05-28T18:02:43.784Z,100.00
2019-05-28T18:05:20.434Z,100.00
2019-05-28T18:07:54.489Z,100.00
2019-05-28T18:10:29.799Z,100.00
2019-05-28T18:13:06.240Z,100.00
2019-05-28T18:15:47.602Z,100.00
2019-05-28T18:18:16.931Z,100.00
2019-05-28T18:20:50.197Z,100.00
2019-05-28T18:23:22.976Z,100.00
2019-05-28T18:25:56.474Z,100.00
2019-05-28T18:28:31.063Z,100.00
2019-05-28T18:31:05.460Z,100.00
2019-05-28T18:33:42.829Z,100.00
2019-05-28T18:36:18.741Z,100.00
2019-05-28T18:38:52.466Z,100.00
2019-05-28T18:41:27.650Z,100.00
2019-05-28T18:44:08.064Z,100.00
2019-05-28T18:46:44.808Z,100.00
2019-05-28T18:49:20.594Z,100.00
2019-05-28T18:51:54.802Z,100.00
2019-05-28T18:54:30.225Z,100.00
2019-05-28T18:57:02.821Z,100.00
2019-05-28T18:59:36.204Z,100.00
2019-05-28T19:02:10.288Z,100.00
2019-05-28T19:04:46.990Z,100.00
2019-05-28T19:07:20.610Z,100.00
2019-05-28T19:09:54.944Z,100.00
2019-05-28T19:12:30.804Z,100.00
2019-05-28T19:15:08.278Z,100.00
2019-05-28T19:17:41.128Z,100.00
2019-05-28T19:20:20.624Z,100.00
2019-05-28T19:22:55.553Z,100.00
2019-05-28T19:25:29.399Z,100.00
2019-05-28T19:28:03.242Z,100.00
2019-05-28T19:30:39.068Z,100.00
2019-05-28T19:33:11.773Z,100.00
2019-05-28T19:35:46.340Z,100.00
2019-05-28T19:38:20.306Z,100.00
2019-05-28T19:40:52.993Z,100.00
2019-05-28T19:43:25.573Z,100.00
2019-05-28T19:45:58.740Z,100.00
2019-05-28T19:48:32.093Z,100.00
2019-05-28T19:51:04.960Z,100.00
2019-05-28T19:53:37.514Z,100.00
2019-05-28T19:56:10.203Z,100.00
2019-05-28T19:58:42.431Z,100.00
2019-05-28T20:01:15.135Z,100.00
2019-05-28T20:03:47.811Z,100.00
2019-05-28T20:06:20.551Z,100.00
2019-05-28T20:08:53.167Z,100.00
2019-05-28T20:11:25.858Z,100.00
2019-05-28T20:13:58.430Z,100.00
2019-05-28T20:16:31.123Z,100.00
2019-05-28T20:19:04.003Z,100.00
2019-05-28T20:21:36.665Z,100.00
2019-05-28T20:24:08.887Z,100.00
2019-05-28T20:26:41.512Z,100.00
2019-05-28T20:29:14.094Z,100.00
2019-05-28T20:31:46.770Z,100.00
2019-05-28T20:34:19.450Z,100.00
2019-05-28T20:36:52.128Z,100.00
2019-05-28T20:39:24.718Z,100.00
2019-05-28T20:41:57.385Z,100.00
2019-05-28T20:44:30.267Z,100.00
2019-05-28T20:47:04.971Z,100.00
2019-05-28T20:49:37.982Z,100.00
2019-05-28T20:52:10.441Z,100.00
2019-05-28T20:54:43.035Z,100.00
2019-05-28T20:57:15.712Z,100.00
2019-05-28T20:59:49.409Z,100.00
2019-05-28T21:02:22.298Z,100.00
2019-05-28T21:04:54.879Z,100.00
2019-05-28T21:07:27.861Z,100.00
2019-05-28T21:10:00.437Z,100.00
2019-05-28T21:12:43.370Z,100.00
2019-05-28T21:15:10.129Z,100.00
2019-05-28T21:17:42.778Z,100.00
2019-05-28T21:20:15.966Z,100.00
2019-05-28T21:22:49.775Z,100.00
2019-05-28T21:25:22.351Z,100.00
2019-05-28T21:27:56.453Z,100.00
2019-05-28T21:30:29.453Z,100.00
2019-05-28T21:33:02.133Z,100.00
2019-05-28T21:35:34.820Z,100.00
2019-05-28T21:38:07.485Z,100.00
2019-05-28T21:40:40.063Z,100.00
2019-05-28T21:43:12.743Z,100.00
2019-05-28T21:45:45.319Z,100.00
2019-05-28T21:48:17.997Z,100.00
2019-05-28T21:50:50.676Z,100.00
2019-05-28T21:53:22.935Z,100.00
2019-05-28T21:55:55.368Z,100.00
2019-05-28T21:58:27.997Z,100.00
2019-05-28T22:01:05.290Z,100.00
2019-05-28T22:03:39.088Z,100.00
2019-05-28T22:06:11.309Z,100.00
2019-05-28T22:08:43.937Z,100.00
2019-05-28T22:11:16.511Z,100.00
2019-05-28T22:13:49.196Z,100.00
2019-05-28T22:16:22.080Z,100.00
2019-05-28T22:18:56.100Z,100.00
2019-05-28T22:21:28.593Z,100.00
2019-05-28T22:24:02.559Z,100.00
2019-05-28T22:26:35.456Z,100.00
2019-05-28T22:29:08.656Z,100.00
2019-05-28T22:31:41.327Z,100.00
2019-05-28T22:34:14.006Z,100.00
2019-05-28T22:36:46.237Z,100.00
2019-05-28T22:39:18.853Z,100.00
2019-05-28T22:41:51.738Z,100.00
2019-05-28T22:44:24.424Z,100.00
2019-05-28T22:46:57.404Z,100.00
2019-05-28T22:49:30.079Z,100.00
2019-05-28T22:52:03.905Z,100.00
2019-05-28T22:54:36.772Z,100.00
2019-05-28T22:57:09.657Z,100.00
2019-05-28T22:59:42.639Z,100.00
2019-05-28T23:02:15.533Z,100.00
2019-05-28T23:04:48.302Z,100.00
2019-05-28T23:07:21.088Z,100.00
2019-05-28T23:09:53.973Z,100.00
2019-05-28T23:12:26.651Z,100.00
2019-05-28T23:14:59.798Z,100.00
2019-05-28T23:17:32.442Z,100.00
2019-05-28T23:20:12.983Z,100.00
2019-05-28T23:22:45.868Z,100.00
2019-05-28T23:25:18.548Z,100.00
2019-05-28T23:27:51.529Z,100.00
2019-05-28T23:30:25.410Z,100.00
2019-05-28T23:32:58.216Z,100.00
2019-05-28T23:35:30.904Z,100.00
2019-05-28T23:38:04.853Z,100.00
2019-05-28T23:40:37.551Z,100.00
2019-05-28T23:43:10.165Z,100.00
2019-05-28T23:45:43.070Z,100.00
2019-05-28T23:48:18.306Z,99.89
2019-05-28T23:50:50.046Z,99.43
2019-05-28T23:53:22.621Z,96.72
2019-05-28T23:55:55.303Z,94.91
2019-05-28T23:58:27.878Z,94.59
